Time;durP1;ratioP1;P1;durP2;ratioP2;P2;SDS_P1;SDS_P2;PMS_P1;PMS_P2;Temp;Humidity;BMP_temperature;BMP_pressure;BME280_temperature;BME280_humidity;BME280_pressure;Samples;Min_cycle;Max_cycle;Signal;HPM_P1;HPM_P2
2023/01/02 00:02:06;;;;;;;0.45;0.45;;;12.00;99.90;;;;;;5026732;28;20021;-74
2023/01/02 00:04:31;;;;;;;0.30;0.30;;;12.00;99.90;;;;;;5018554;28;20392;-74
2023/01/02 00:06:57;;;;;;;0.20;0.20;;;12.00;99.90;;;;;;5020004;28;20033;-75
2023/01/02 00:09:24;;;;;;;0.20;0.20;;;12.00;99.90;;;;;;5026480;28;20026;-75
2023/01/02 00:11:49;;;;;;;0.20;0.20;;;12.10;99.90;;;;;;5026290;28;20033;-74
2023/01/02 00:14:15;;;;;;;0.40;0.40;;;12.10;99.90;;;;;;5018823;28;20422;-75
2023/01/02 00:16:40;;;;;;;0.20;0.20;;;12.00;99.90;;;;;;5018420;28;20026;-74
2023/01/02 00:19:07;;;;;;;0.55;0.55;;;12.10;99.90;;;;;;5018310;28;20031;-75
2023/01/02 00:21:33;;;;;;;0.32;0.28;;;12.00;99.90;;;;;;5020285;28;20060;-75
2023/01/02 00:23:58;;;;;;;0.20;0.20;;;12.00;99.90;;;;;;5026351;28;20074;-75
2023/01/02 00:26:24;;;;;;;0.30;0.30;;;12.00;99.90;;;;;;5025467;28;20456;-76
2023/01/02 00:28:49;;;;;;;0.20;0.20;;;12.00;99.90;;;;;;5019616;28;20034;-76
2023/01/02 00:31:15;;;;;;;0.50;0.50;;;12.10;99.90;;;;;;5020383;28;20018;-76
2023/01/02 00:33:42;;;;;;;0.20;0.20;;;12.10;99.90;;;;;;5025999;28;20393;-74
2023/01/02 00:36:10;;;;;;;0.20;0.20;;;12.10;99.90;;;;;;5023928;28;20498;-74
2023/01/02 00:38:36;;;;;;;0.20;0.20;;;12.00;99.90;;;;;;5019039;28;20036;-74
2023/01/02 00:41:02;;;;;;;0.10;0.10;;;12.00;99.90;;;;;;5019765;28;20026;-75
2023/01/02 00:43:28;;;;;;;0.35;0.35;;;12.00;99.90;;;;;;5031658;28;20029;-74
2023/01/02 00:45:54;;;;;;;0.40;0.32;;;12.10;99.90;;;;;;5031052;28;20029;-75
2023/01/02 00:48:20;;;;;;;0.88;0.88;;;12.20;99.90;;;;;;5031621;28;20391;-74
2023/01/02 00:50:46;;;;;;;0.20;0.20;;;12.20;99.90;;;;;;5019732;28;20033;-75
2023/01/02 00:53:11;;;;;;;0.45;0.45;;;12.20;99.90;;;;;;5012430;28;20030;-75
2023/01/02 00:55:37;;;;;;;0.22;0.22;;;12.20;99.90;;;;;;5012377;28;20030;-74
2023/01/02 00:58:03;;;;;;;0.20;0.20;;;12.30;99.90;;;;;;5012172;28;20137;-74
2023/01/02 01:00:28;;;;;;;0.45;0.45;;;12.20;99.90;;;;;;5012403;28;20022;-75
2023/01/02 01:02:56;;;;;;;0.20;0.20;;;12.20;99.90;;;;;;5018237;28;20025;-75
2023/01/02 01:05:22;;;;;;;0.20;0.20;;;12.20;99.90;;;;;;5032101;28;20095;-75
2023/01/02 01:07:48;;;;;;;0.20;0.20;;;12.20;99.90;;;;;;5024163;28;20147;-75
2023/01/02 01:10:13;;;;;;;0.30;0.30;;;12.20;99.90;;;;;;5012300;28;20105;-75
2023/01/02 01:12:39;;;;;;;0.20;0.20;;;12.20;99.90;;;;;;5018260;28;20025;-75
2023/01/02 01:15:06;;;;;;;0.20;0.20;;;12.20;99.90;;;;;;5031818;28;20068;-75
2023/01/02 01:17:32;;;;;;;0.32;0.30;;;12.20;99.90;;;;;;5018250;28;20053;-75
2023/01/02 01:19:57;;;;;;;4.55;4.25;;;12.20;99.90;;;;;;5018965;28;20067;-73
2023/01/02 01:22:23;;;;;;;0.82;0.82;;;12.20;99.90;;;;;;5031670;28;20436;-74
2023/01/02 01:24:49;;;;;;;0.10;0.10;;;12.20;99.90;;;;;;5018680;28;20464;-74
2023/01/02 01:27:14;;;;;;;0.20;0.20;;;12.10;99.90;;;;;;5025052;28;20026;-74
2023/01/02 01:29:40;;;;;;;0.38;0.38;;;12.10;99.90;;;;;;5012066;28;20373;-75
2023/01/02 01:32:05;;;;;;;0.40;0.40;;;12.10;99.90;;;;;;5012126;28;20030;-75
2023/01/02 01:34:31;;;;;;;0.10;0.10;;;12.10;99.90;;;;;;5011856;28;20030;-75
2023/01/02 01:36:56;;;;;;;0.10;0.10;;;12.10;99.90;;;;;;5010621;28;20014;-75
2023/01/02 01:39:22;;;;;;;0.20;0.20;;;12.10;99.90;;;;;;5024406;28;20017;-74
2023/01/02 01:41:47;;;;;;;0.20;0.20;;;12.10;99.90;;;;;;5018213;28;20029;-74
2023/01/02 01:44:52;;;;;;;0.28;0.28;;;12.10;99.90;;;;;;5018118;28;20026;-74
2023/01/02 01:47:41;;;;;;;0.30;0.30;;;12.10;99.90;;;;;;5022340;28;20021;-73
2023/01/02 01:50:15;;;;;;;1.42;1.35;;;12.10;99.90;;;;;;5018748;28;20032;-73
2023/01/02 01:52:50;;;;;;;0.20;0.20;;;12.10;99.90;;;;;;5018302;28;20018;-73
2023/01/02 01:55:21;;;;;;;0.20;0.20;;;12.20;99.90;;;;;;5022279;28;20029;-74
2023/01/02 01:57:59;;;;;;;0.20;0.20;;;11.90;99.90;;;;;;5023398;28;20032;-73
2023/01/02 02:00:25;;;;;;;0.20;0.20;;;12.10;99.90;;;;;;5011813;28;20026;-74
2023/01/02 02:03:03;;;;;;;0.20;0.20;;;12.10;99.90;;;;;;5020736;28;20048;-74
2023/01/02 02:05:30;;;;;;;0.40;0.40;;;12.10;99.90;;;;;;5021474;28;20439;-74
2023/01/02 02:08:18;;;;;;;0.20;0.20;;;12.10;99.90;;;;;;5027421;28;20157;-74
2023/01/02 02:10:45;;;;;;;0.20;0.20;;;12.10;99.90;;;;;;5027475;28;20026;-75
2023/01/02 02:13:11;;;;;;;0.40;0.40;;;12.10;99.90;;;;;;5024433;28;20037;-74
2023/01/02 02:16:02;;;;;;;0.20;0.20;;;12.00;99.90;;;;;;5016921;28;20097;-75
2023/01/02 02:18:45;;;;;;;0.20;0.20;;;12.00;99.90;;;;;;5015200;28;20022;-72
2023/01/02 02:21:41;;;;;;;0.20;0.20;;;12.00;99.90;;;;;;5013950;28;20548;-72
2023/01/02 02:24:30;;;;;;;0.10;0.10;;;12.00;99.90;;;;;;5022330;28;20029;-72
2023/01/02 02:27:06;;;;;;;0.20;0.20;;;12.00;99.90;;;;;;5017863;28;20029;-72
2023/01/02 02:30:01;;;;;;;0.22;0.22;;;12.00;99.90;;;;;;5013888;28;20055;-72
2023/01/02 02:32:48;;;;;;;0.43;0.43;;;12.00;99.90;;;;;;5024335;28;20017;-74
2023/01/02 02:35:52;;;;;;;0.20;0.20;;;12.10;99.90;;;;;;5020226;28;20075;-73
2023/01/02 02:38:47;;;;;;;0.20;0.20;;;12.10;99.90;;;;;;5033432;28;20112;-73
2023/01/02 02:41:32;;;;;;;0.28;0.28;;;12.00;99.90;;;;;;4979555;28;20035;-74
2023/01/02 02:44:12;;;;;;;0.10;0.10;;;12.10;99.90;;;;;;5023948;28;20056;-74
2023/01/02 02:46:47;;;;;;;0.47;0.30;;;12.10;99.90;;;;;;5019897;28;20030;-74
2023/01/02 02:49:26;;;;;;;0.15;0.15;;;11.90;99.90;;;;;;5021411;28;20018;-74
2023/01/02 02:52:11;;;;;;;0.20;0.20;;;12.00;99.90;;;;;;5021994;28;20472;-74
2023/01/02 02:54:57;;;;;;;0.20;0.20;;;12.00;99.90;;;;;;5030216;28;20026;-74
2023/01/02 02:57:24;;;;;;;0.30;0.30;;;12.10;99.90;;;;;;5027934;28;20055;-74
2023/01/02 02:59:50;;;;;;;0.10;0.10;;;12.00;99.90;;;;;;5020439;28;20041;-76
2023/01/02 03:02:17;;;;;;;0.20;0.20;;;12.00;99.90;;;;;;5034300;28;20017;-76
2023/01/02 03:04:51;;;;;;;0.40;0.30;;;12.00;99.90;;;;;;5026743;28;20392;-76
2023/01/02 03:07:43;;;;;;;0.10;0.10;;;12.10;99.90;;;;;;5028265;28;20022;-76
2023/01/02 03:10:11;;;;;;;0.20;0.20;;;12.00;99.90;;;;;;5032913;28;20488;-76
2023/01/02 03:13:16;;;;;;;0.20;0.20;;;12.00;99.90;;;;;;5014572;28;20061;-76
2023/01/02 03:15:57;;;;;;;0.20;0.20;;;12.00;99.90;;;;;;5010635;28;20116;-75
2023/01/02 03:18:34;;;;;;;0.38;0.38;;;11.90;99.90;;;;;;5014133;28;20022;-76
2023/01/02 03:21:08;;;;;;;0.17;0.17;;;12.00;99.90;;;;;;5024481;28;20084;-75
2023/01/02 03:23:42;;;;;;;0.50;0.50;;;12.00;99.90;;;;;;5015419;28;20032;-76
2023/01/02 03:26:08;;;;;;;0.17;0.17;;;12.00;99.90;;;;;;5024513;28;20033;-76
2023/01/02 03:28:36;;;;;;;0.10;0.10;;;12.00;99.90;;;;;;5015384;28;20113;-75
2023/01/02 03:31:04;;;;;;;0.20;0.20;;;12.00;99.90;;;;;;5012745;28;20073;-76
2023/01/02 03:33:35;;;;;;;0.30;0.30;;;11.90;99.90;;;;;;5018021;28;20032;-76
2023/01/02 03:36:05;;;;;;;0.10;0.10;;;11.80;99.90;;;;;;5033666;28;20029;-76
2023/01/02 03:38:39;;;;;;;2.17;0.90;;;11.80;99.90;;;;;;5020117;28;20022;-76
2023/01/02 03:41:10;;;;;;;0.30;0.30;;;11.90;99.90;;;;;;5020782;28;20492;-77
2023/01/02 03:43:38;;;;;;;0.20;0.20;;;11.80;99.90;;;;;;5012487;28;20072;-75
2023/01/02 03:46:16;;;;;;;0.30;0.30;;;11.80;99.90;;;;;;5027697;28;20033;-76
2023/01/02 03:48:52;;;;;;;0.10;0.10;;;11.90;99.90;;;;;;5024173;28;20026;-76
2023/01/02 03:51:18;;;;;;;0.20;0.20;;;11.80;99.90;;;;;;5030936;28;20017;-76
2023/01/02 03:53:44;;;;;;;0.15;0.15;;;11.80;99.90;;;;;;5022746;28;20033;-76
2023/01/02 03:56:30;;;;;;;0.20;0.20;;;11.70;99.90;;;;;;5026843;28;20048;-76
2023/01/02 03:59:05;;;;;;;0.13;0.13;;;11.80;99.90;;;;;;5012027;28;20058;-76
2023/01/02 04:01:55;;;;;;;0.20;0.20;;;11.80;99.90;;;;;;5025571;28;20028;-75
2023/01/02 04:04:26;;;;;;;0.10;0.10;;;11.70;99.90;;;;;;5017759;28;20089;-75
2023/01/02 04:06:58;;;;;;;0.10;0.10;;;11.70;99.90;;;;;;5013178;28;20072;-75
2023/01/02 04:09:28;;;;;;;0.38;0.38;;;11.70;99.90;;;;;;5013221;28;20033;-75
2023/01/02 04:12:09;;;;;;;0.10;0.10;;;11.70;99.90;;;;;;5011903;28;20075;-74
2023/01/02 04:14:42;;;;;;;0.20;0.20;;;11.60;99.90;;;;;;5016870;28;20113;-74
2023/01/02 04:17:09;;;;;;;0.25;0.25;;;11.50;99.90;;;;;;5026151;28;20029;-75
2023/01/02 04:19:40;;;;;;;0.10;0.10;;;11.20;99.90;;;;;;5022885;28;20491;-75
2023/01/02 04:22:12;;;;;;;0.30;0.30;;;11.50;99.90;;;;;;5018471;28;20520;-75
2023/01/02 04:24:45;;;;;;;0.10;0.10;;;11.50;99.90;;;;;;5031919;28;20439;-76
2023/01/02 04:27:20;;;;;;;0.20;0.20;;;11.40;99.90;;;;;;5019216;28;20475;-76
2023/01/02 04:29:46;;;;;;;0.20;0.20;;;11.50;99.90;;;;;;5032762;28;20083;-76
2023/01/02 04:32:32;;;;;;;0.20;0.20;;;11.50;99.90;;;;;;5025373;28;20129;-76
2023/01/02 04:35:03;;;;;;;0.22;0.22;;;11.50;99.90;;;;;;5016032;28;20440;-75
2023/01/02 04:37:33;;;;;;;0.10;0.10;;;11.50;99.90;;;;;;5021838;28;20065;-75
2023/01/02 04:40:04;;;;;;;0.20;0.20;;;11.50;99.90;;;;;;5026029;28;20025;-75
2023/01/02 04:42:30;;;;;;;0.35;0.35;;;11.50;99.90;;;;;;5012537;28;20112;-74
2023/01/02 04:44:56;;;;;;;0.20;0.20;;;11.40;99.90;;;;;;5012468;28;20114;-74
2023/01/02 04:47:21;;;;;;;0.20;0.20;;;11.40;99.90;;;;;;5011079;28;20053;-75
2023/01/02 04:49:47;;;;;;;0.47;0.45;;;11.50;99.90;;;;;;5017957;28;20108;-75
2023/01/02 04:52:12;;;;;;;0.20;0.20;;;11.60;99.90;;;;;;5020296;28;20037;-75
2023/01/02 04:54:38;;;;;;;0.20;0.20;;;11.50;99.90;;;;;;5017862;28;20072;-74
2023/01/02 04:57:03;;;;;;;0.40;0.40;;;11.60;99.90;;;;;;5020059;28;20026;-77
2023/01/02 04:59:29;;;;;;;0.35;0.35;;;11.60;99.90;;;;;;5012500;28;20029;-77
2023/01/02 05:01:54;;;;;;;0.75;0.75;;;11.60;99.90;;;;;;5011112;28;20045;-74
2023/01/02 05:04:20;;;;;;;0.10;0.10;;;11.70;99.90;;;;;;5025657;28;20480;-75
2023/01/02 05:06:45;;;;;;;0.20;0.20;;;11.60;99.90;;;;;;5023420;28;20388;-74
2023/01/02 05:09:11;;;;;;;0.20;0.20;;;11.70;99.90;;;;;;5031718;28;20029;-74
2023/01/02 05:11:36;;;;;;;0.20;0.20;;;11.70;99.90;;;;;;5019642;28;20021;-74
2023/01/02 05:14:02;;;;;;;0.28;0.28;;;11.80;99.90;;;;;;5029630;28;20025;-74
2023/01/02 05:16:27;;;;;;;0.20;0.20;;;11.70;99.90;;;;;;5031695;28;20033;-74
2023/01/02 05:18:53;;;;;;;0.50;0.50;;;11.80;99.90;;;;;;5030316;28;20025;-75
2023/01/02 05:24:03;;;;;;;0.20;0.20;;;11.80;99.90;;;;;;5031622;28;20079;-74
2023/01/02 05:26:31;;;;;;;2.22;2.13;;;11.80;99.90;;;;;;5018227;28;20038;-76
2023/01/02 05:28:57;;;;;;;0.30;0.30;;;11.80;99.90;;;;;;5017320;28;20495;-74
2023/01/02 05:31:23;;;;;;;0.20;0.20;;;11.80;99.90;;;;;;5018035;28;20030;-76
2023/01/02 05:33:54;;;;;;;0.10;0.10;;;11.70;99.90;;;;;;5010649;28;20030;-75
2023/01/02 05:36:20;;;;;;;0.20;0.20;;;11.70;99.90;;;;;;5012477;28;20121;-74
2023/01/02 05:38:46;;;;;;;0.40;0.40;;;11.70;99.90;;;;;;5023865;28;20045;-73
2023/01/02 05:41:12;;;;;;;0.40;0.40;;;11.70;99.90;;;;;;5012199;28;20465;-74
2023/01/02 05:43:37;;;;;;;0.15;0.15;;;11.80;99.90;;;;;;5011607;28;20500;-74
2023/01/02 05:46:12;;;;;;;0.10;0.10;;;11.70;99.90;;;;;;5011864;28;20029;-74
2023/01/02 05:48:38;;;;;;;0.20;0.20;;;11.70;99.90;;;;;;5011853;28;20022;-74
2023/01/02 05:51:05;;;;;;;0.28;0.28;;;11.70;99.90;;;;;;5011669;28;20034;-74
2023/01/02 05:53:31;;;;;;;0.10;0.10;;;11.70;99.90;;;;;;5011917;28;20037;-74
2023/01/02 05:56:09;;;;;;;0.90;0.65;;;11.70;99.90;;;;;;5011749;28;20029;-73
2023/01/02 05:58:37;;;;;;;0.10;0.10;;;11.70;99.90;;;;;;5021462;28;20034;-74
2023/01/02 06:01:07;;;;;;;0.85;0.85;;;11.60;99.90;;;;;;5018118;28;20017;-74
2023/01/02 06:03:32;;;;;;;0.40;0.40;;;11.60;99.90;;;;;;5019588;28;20026;-74
2023/01/02 06:06:08;;;;;;;0.22;0.22;;;11.50;99.90;;;;;;5024990;28;20051;-75
2023/01/02 06:08:34;;;;;;;0.20;0.20;;;11.50;99.90;;;;;;5023708;28;20030;-74
2023/01/02 06:11:01;;;;;;;0.10;0.10;;;11.60;99.90;;;;;;5018293;28;20021;-75
2023/01/02 06:13:31;;;;;;;0.17;0.17;;;11.50;99.90;;;;;;5020012;28;20040;-75
2023/01/02 06:15:57;;;;;;;0.95;0.65;;;11.50;99.90;;;;;;5011601;28;20026;-75
2023/01/02 06:18:23;;;;;;;0.20;0.20;;;11.40;99.90;;;;;;5010339;28;20018;-75
2023/01/02 06:20:49;;;;;;;0.38;0.38;;;11.50;99.90;;;;;;5011659;28;20026;-75
2023/01/02 06:23:15;;;;;;;0.20;0.20;;;11.40;99.90;;;;;;5011866;28;20437;-75
2023/01/02 06:25:40;;;;;;;0.10;0.10;;;11.40;99.90;;;;;;5011565;28;20036;-74
2023/01/02 06:28:06;;;;;;;0.10;0.10;;;11.40;99.90;;;;;;5024774;28;20043;-75
2023/01/02 06:30:32;;;;;;;0.30;0.30;;;11.50;99.90;;;;;;5031183;28;20360;-75
2023/01/02 06:32:57;;;;;;;2.47;0.75;;;11.40;99.90;;;;;;5029874;28;20056;-75
2023/01/02 06:35:23;;;;;;;0.10;0.10;;;11.50;99.90;;;;;;5023227;28;20026;-75
2023/01/02 06:37:49;;;;;;;0.95;0.88;;;11.50;99.90;;;;;;5022918;28;20029;-75
2023/01/02 06:40:14;;;;;;;0.88;0.47;;;11.50;99.90;;;;;;5016539;28;20056;-75
2023/01/02 06:42:43;;;;;;;0.20;0.20;;;11.50;99.90;;;;;;5018025;28;20117;-74
2023/01/02 06:45:09;;;;;;;0.20;0.20;;;11.40;99.90;;;;;;5016845;28;20026;-75
2023/01/02 06:47:34;;;;;;;0.20;0.20;;;11.50;99.90;;;;;;5032584;28;20079;-75
2023/01/02 06:50:00;;;;;;;0.20;0.20;;;11.50;99.90;;;;;;5034503;28;20535;-75
2023/01/02 06:52:27;;;;;;;0.20;0.20;;;11.40;99.90;;;;;;5020334;28;20470;-75
2023/01/02 06:54:53;;;;;;;0.20;0.20;;;11.40;99.90;;;;;;5027711;28;20033;-75
2023/01/02 06:57:18;;;;;;;0.45;0.45;;;11.40;99.90;;;;;;5027553;28;20392;-75
2023/01/02 06:59:44;;;;;;;0.20;0.20;;;11.50;99.90;;;;;;5014778;28;20033;-75
2023/01/02 07:02:11;;;;;;;0.20;0.20;;;11.50;99.90;;;;;;5026004;28;20149;-75
2023/01/02 07:04:36;;;;;;;1.55;0.63;;;11.50;99.90;;;;;;5020900;28;20025;-73
2023/01/02 07:07:02;;;;;;;0.43;0.43;;;11.40;99.90;;;;;;5021107;28;20030;-74
2023/01/02 07:09:28;;;;;;;0.32;0.32;;;11.50;99.90;;;;;;5027803;28;20476;-74
2023/01/02 07:11:53;;;;;;;0.20;0.20;;;11.40;99.90;;;;;;5027220;28;20076;-74
2023/01/02 07:14:19;;;;;;;0.20;0.20;;;11.40;99.90;;;;;;5020661;28;20495;-73
2023/01/02 07:16:44;;;;;;;0.30;0.30;;;11.40;99.90;;;;;;5021100;28;20028;-74
2023/01/02 07:19:10;;;;;;;0.20;0.20;;;11.40;99.90;;;;;;5033609;28;20026;-74
2023/01/02 07:21:35;;;;;;;0.20;0.20;;;11.50;99.90;;;;;;5020621;28;20044;-75
2023/01/02 07:24:01;;;;;;;6.03;0.90;;;11.50;99.90;;;;;;5016927;28;20037;-75
2023/01/02 07:26:26;;;;;;;0.20;0.20;;;11.50;99.90;;;;;;5026842;28;20047;-74
2023/01/02 07:28:52;;;;;;;0.20;0.20;;;11.50;99.90;;;;;;5019040;28;20129;-74
2023/01/02 07:31:18;;;;;;;0.30;0.30;;;11.50;99.90;;;;;;5020470;28;20090;-74
2023/01/02 07:33:45;;;;;;;0.20;0.20;;;11.50;99.90;;;;;;5013666;28;20079;-74
2023/01/02 07:36:16;;;;;;;0.40;0.40;;;11.50;99.90;;;;;;5013694;28;20026;-74
2023/01/02 07:38:42;;;;;;;0.65;0.65;;;11.50;99.90;;;;;;5020336;28;20021;-74
2023/01/02 07:41:15;;;;;;;0.65;0.65;;;11.50;99.90;;;;;;5019872;28;20377;-75
2023/01/02 07:43:42;;;;;;;0.20;0.20;;;11.50;99.90;;;;;;5013632;28;20424;-75
2023/01/02 07:46:08;;;;;;;0.20;0.20;;;11.60;99.90;;;;;;5019041;28;20033;-75
2023/01/02 07:48:33;;;;;;;0.30;0.30;;;11.60;99.90;;;;;;5028955;28;20029;-75
2023/01/02 07:51:04;;;;;;;0.25;0.25;;;11.60;99.90;;;;;;5028120;28;20030;-75
2023/01/02 07:53:30;;;;;;;0.20;0.20;;;11.50;99.90;;;;;;5030993;28;20104;-75
2023/01/02 07:55:57;;;;;;;0.77;0.77;;;11.60;99.90;;;;;;5018534;28;20586;-74
2023/01/02 07:58:23;;;;;;;0.20;0.20;;;11.50;99.90;;;;;;5020759;28;20538;-74
2023/01/02 08:00:49;;;;;;;0.20;0.20;;;11.60;99.90;;;;;;5018701;28;20034;-75
2023/01/02 08:03:14;;;;;;;1.65;0.40;;;11.60;99.90;;;;;;5025223;28;20456;-75
2023/01/02 08:05:40;;;;;;;0.40;0.40;;;11.60;99.90;;;;;;5013281;28;20088;-75
2023/01/02 08:08:05;;;;;;;1.00;1.00;;;11.50;99.90;;;;;;5020513;28;20040;-75
2023/01/02 08:10:31;;;;;;;0.50;0.50;;;11.50;99.90;;;;;;5031752;28;20112;-74
2023/01/02 08:12:56;;;;;;;0.20;0.20;;;11.40;99.90;;;;;;5025437;28;20026;-75
2023/01/02 08:15:23;;;;;;;0.20;0.20;;;11.50;99.90;;;;;;5027024;28;20065;-75
2023/01/02 08:17:49;;;;;;;0.45;0.25;;;11.50;99.90;;;;;;5024883;28;20037;-75
2023/01/02 08:20:15;;;;;;;0.20;0.20;;;11.50;99.90;;;;;;5013048;28;20032;-74
2023/01/02 08:22:40;;;;;;;0.50;0.50;;;11.50;99.90;;;;;;5012847;28;20025;-74
2023/01/02 08:25:06;;;;;;;0.20;0.20;;;11.40;99.90;;;;;;5012997;28;20065;-74
2023/01/02 08:27:32;;;;;;;0.47;0.47;;;11.40;99.90;;;;;;5010670;28;20080;-74
2023/01/02 08:29:58;;;;;;;0.20;0.20;;;11.50;99.90;;;;;;5014470;28;20034;-74
2023/01/02 08:32:24;;;;;;;0.20;0.20;;;11.40;99.90;;;;;;5024301;28;20034;-75
2023/01/02 08:34:49;;;;;;;0.20;0.20;;;11.70;99.90;;;;;;5027804;28;20042;-74
2023/01/02 08:37:15;;;;;;;0.10;0.10;;;11.40;99.90;;;;;;5012100;28;20018;-74
2023/01/02 08:39:40;;;;;;;0.20;0.20;;;11.30;99.90;;;;;;5012563;28;20026;-74
2023/01/02 08:42:06;;;;;;;0.20;0.20;;;11.40;99.90;;;;;;5011160;28;20041;-74
2023/01/02 08:44:36;;;;;;;0.20;0.20;;;11.40;99.90;;;;;;5012752;28;20037;-74
2023/01/02 08:47:03;;;;;;;1.05;1.05;;;11.40;99.90;;;;;;5012211;28;20510;-75
2023/01/02 08:49:29;;;;;;;0.35;0.32;;;11.70;99.90;;;;;;5012590;28;20108;-75
2023/01/02 08:51:54;;;;;;;0.68;0.68;;;11.50;99.90;;;;;;5011333;28;20065;-75
2023/01/02 08:54:20;;;;;;;2.17;1.73;;;11.50;99.90;;;;;;5028384;28;20045;-75
2023/01/02 08:56:47;;;;;;;0.30;0.30;;;11.50;99.90;;;;;;5022958;28;20067;-75
2023/01/02 08:59:13;;;;;;;0.20;0.20;;;11.40;99.90;;;;;;5012557;28;20022;-75
2023/01/02 09:01:39;;;;;;;0.20;0.20;;;11.50;99.90;;;;;;5012488;28;20030;-75
2023/01/02 09:04:06;;;;;;;0.20;0.20;;;11.40;99.90;;;;;;5019791;28;20483;-75
2023/01/02 09:06:33;;;;;;;0.20;0.20;;;11.50;99.90;;;;;;5022500;28;20033;-75
2023/01/02 09:08:59;;;;;;;0.35;0.35;;;11.40;99.90;;;;;;5025325;28;20109;-75
2023/01/02 09:11:26;;;;;;;0.20;0.20;;;11.40;99.90;;;;;;5011531;28;20120;-75
2023/01/02 09:13:51;;;;;;;0.20;0.20;;;11.50;99.90;;;;;;5025296;28;20030;-75
2023/01/02 09:16:17;;;;;;;0.30;0.30;;;11.50;99.90;;;;;;5027752;28;20079;-75
2023/01/02 09:18:43;;;;;;;0.20;0.20;;;11.50;99.90;;;;;;5030887;28;20021;-75
2023/01/02 09:21:08;;;;;;;0.40;0.40;;;11.50;99.90;;;;;;5030566;28;20029;-75
2023/01/02 09:23:34;;;;;;;0.47;0.47;;;11.50;99.90;;;;;;5015844;28;20018;-76
2023/01/02 09:26:01;;;;;;;0.32;0.32;;;11.60;99.90;;;;;;5019716;28;20033;-74
2023/01/02 09:28:27;;;;;;;0.32;0.32;;;11.60;99.90;;;;;;5011168;28;20030;-74
2023/01/02 09:30:53;;;;;;;0.20;0.20;;;11.60;99.90;;;;;;5017566;28;20483;-74
2023/01/02 09:33:19;;;;;;;0.57;0.57;;;11.70;99.90;;;;;;5031622;28;20042;-75
2023/01/02 09:35:45;;;;;;;1.95;0.85;;;11.60;99.90;;;;;;5022065;28;20101;-74
2023/01/02 09:38:10;;;;;;;0.95;0.40;;;11.60;99.90;;;;;;5024859;28;20030;-74
2023/01/02 09:40:43;;;;;;;2.97;2.72;;;11.70;99.90;;;;;;5012001;28;20018;-74
2023/01/02 09:43:09;;;;;;;0.40;0.40;;;11.70;99.90;;;;;;5010410;28;20619;-74
2023/01/02 09:45:39;;;;;;;0.20;0.20;;;11.80;99.90;;;;;;5011827;28;20080;-75
2023/01/02 09:48:05;;;;;;;0.32;0.32;;;11.70;99.90;;;;;;5011219;28;20081;-74
2023/01/02 09:50:30;;;;;;;0.30;0.30;;;11.70;99.90;;;;;;5011761;28;20033;-74
2023/01/02 09:52:59;;;;;;;0.20;0.20;;;11.70;99.90;;;;;;5012133;28;20033;-77
2023/01/02 09:55:28;;;;;;;0.20;0.20;;;11.80;99.90;;;;;;5023716;28;20092;-75
2023/01/02 09:57:59;;;;;;;0.20;0.20;;;11.80;99.90;;;;;;5012987;28;20084;-74
2023/01/02 10:00:28;;;;;;;0.40;0.40;;;11.70;99.90;;;;;;5011831;28;20113;-74
2023/01/02 10:03:17;;;;;;;0.30;0.30;;;11.80;99.90;;;;;;5010552;28;20018;-75
2023/01/02 10:05:58;;;;;;;0.20;0.20;;;11.80;99.90;;;;;;5011763;28;20026;-77
2023/01/02 10:08:43;;;;;;;0.20;0.20;;;11.80;99.90;;;;;;5021608;28;20053;-75
2023/01/02 10:11:17;;;;;;;0.25;0.25;;;11.90;99.90;;;;;;5011570;28;20040;-75
2023/01/02 10:14:06;;;;;;;0.65;0.65;;;12.00;99.90;;;;;;5024711;28;20435;-75
2023/01/02 10:16:37;;;;;;;0.32;0.32;;;12.00;99.90;;;;;;5019338;28;20061;-74
2023/01/02 10:19:13;;;;;;;0.60;0.60;;;12.00;99.90;;;;;;5031497;28;20022;-74
2023/01/02 10:21:41;;;;;;;0.50;0.50;;;12.10;99.90;;;;;;5032811;28;20515;-74
2023/01/02 10:24:16;;;;;;;0.20;0.20;;;12.20;99.90;;;;;;5034318;28;20037;-76
2023/01/02 10:26:48;;;;;;;0.20;0.20;;;12.10;99.90;;;;;;5034239;28;20025;-74
2023/01/02 10:29:27;;;;;;;0.10;0.10;;;12.20;99.90;;;;;;5026314;28;20061;-74
2023/01/02 10:32:02;;;;;;;6.40;1.08;;;12.30;99.90;;;;;;5029066;28;20022;-74
2023/01/02 10:34:43;;;;;;;0.55;0.55;;;12.40;99.90;;;;;;5026418;28;20030;-75
2023/01/02 10:37:13;;;;;;;1.00;1.00;;;12.40;99.90;;;;;;5022453;28;20049;-75
2023/01/02 10:39:42;;;;;;;1.33;0.60;;;12.60;99.90;;;;;;5033490;28;20112;-75
2023/01/02 10:42:11;;;;;;;0.20;0.20;;;12.60;99.90;;;;;;5026705;28;20045;-74
2023/01/02 10:44:38;;;;;;;0.80;0.80;;;12.60;99.90;;;;;;5017118;28;20030;-74
2023/01/02 10:47:10;;;;;;;7.20;6.75;;;12.60;99.90;;;;;;5032599;28;20128;-75
2023/01/02 10:49:37;;;;;;;0.20;0.20;;;12.70;99.90;;;;;;5034507;28;20076;-75
2023/01/02 10:52:10;;;;;;;2.75;2.42;;;12.70;99.90;;;;;;5034423;28;20021;-75
2023/01/02 10:54:53;;;;;;;0.50;0.50;;;12.80;99.90;;;;;;5019721;28;20017;-74
2023/01/02 10:57:43;;;;;;;0.57;0.40;;;12.70;99.90;;;;;;5020826;28;20116;-74
2023/01/02 11:00:17;;;;;;;0.20;0.20;;;12.70;99.90;;;;;;5024336;28;20022;-74
2023/01/02 11:02:50;;;;;;;0.20;0.20;;;12.50;99.90;;;;;;5020983;28;20030;-74
2023/01/02 11:05:23;;;;;;;0.20;0.20;;;12.50;99.90;;;;;;5022546;28;20026;-74
2023/01/02 11:07:50;;;;;;;0.20;0.20;;;12.60;99.90;;;;;;5020353;28;20079;-74
2023/01/02 11:10:37;;;;;;;0.20;0.20;;;12.60;99.90;;;;;;5021123;28;20030;-74
2023/01/02 11:13:08;;;;;;;0.20;0.20;;;12.60;99.90;;;;;;5014490;28;20021;-75
2023/01/02 11:15:35;;;;;;;0.20;0.20;;;12.60;99.90;;;;;;5016488;28;20033;-74
2023/01/02 11:18:09;;;;;;;0.85;0.85;;;12.60;99.90;;;;;;5026254;28;20037;-75
2023/01/02 11:20:36;;;;;;;0.28;0.28;;;12.70;99.90;;;;;;5026205;28;20030;-74
2023/01/02 11:23:03;;;;;;;0.40;0.40;;;13.00;99.90;;;;;;5028588;28;20021;-75
2023/01/02 11:25:40;;;;;;;0.20;0.20;;;12.90;99.90;;;;;;5027801;28;20409;-74
2023/01/02 11:28:15;;;;;;;0.85;0.85;;;13.00;99.90;;;;;;5026874;28;20025;-75
2023/01/02 11:30:46;;;;;;;0.20;0.20;;;12.90;99.90;;;;;;5021966;28;20033;-76
2023/01/02 11:33:23;;;;;;;0.20;0.20;;;12.90;99.90;;;;;;5029337;28;20436;-75
2023/01/02 11:35:55;;;;;;;0.10;0.10;;;12.90;99.90;;;;;;5015077;28;20447;-74
2023/01/02 11:38:27;;;;;;;0.20;0.20;;;12.90;99.90;;;;;;5026664;28;20031;-75
2023/01/02 11:40:59;;;;;;;0.20;0.20;;;13.00;99.90;;;;;;5013914;28;20037;-75
2023/01/02 11:43:48;;;;;;;0.57;0.57;;;13.10;99.90;;;;;;5013565;28;20036;-74
2023/01/02 11:46:35;;;;;;;0.40;0.40;;;13.10;99.90;;;;;;5012425;28;20472;-75
2023/01/02 11:49:05;;;;;;;0.10;0.10;;;13.10;99.90;;;;;;5011799;28;20428;-75
2023/01/02 11:51:34;;;;;;;0.20;0.20;;;13.20;99.90;;;;;;5013734;28;20030;-74
2023/01/02 11:54:03;;;;;;;0.20;0.20;;;13.20;99.90;;;;;;5013420;28;20026;-74
2023/01/02 11:56:35;;;;;;;0.20;0.20;;;13.30;99.90;;;;;;5013514;28;20026;-74
2023/01/02 11:59:12;;;;;;;0.20;0.20;;;13.40;99.90;;;;;;5012719;28;20136;-75
2023/01/02 12:02:04;;;;;;;0.20;0.20;;;13.30;99.90;;;;;;5013544;28;20026;-75
2023/01/02 12:04:30;;;;;;;0.20;0.20;;;13.40;99.90;;;;;;5013233;28;20022;-74
2023/01/02 12:07:14;;;;;;;0.20;0.20;;;13.30;99.90;;;;;;5012793;28;20488;-74
2023/01/02 12:10:04;;;;;;;0.10;0.10;;;13.30;99.90;;;;;;5020363;28;20124;-74
2023/01/02 12:12:55;;;;;;;6.32;2.33;;;13.30;99.90;;;;;;5028061;28;20029;-75
2023/01/02 12:15:51;;;;;;;0.20;0.20;;;13.30;99.90;;;;;;5026542;28;20092;-75
2023/01/02 12:18:27;;;;;;;0.30;0.30;;;13.30;99.90;;;;;;5023395;28;20624;-74
2023/01/02 12:21:14;;;;;;;0.40;0.40;;;13.30;99.90;;;;;;5024767;28;20025;-75
2023/01/02 12:23:40;;;;;;;0.10;0.10;;;13.30;99.90;;;;;;5026250;28;20033;-74
2023/01/02 12:26:13;;;;;;;0.10;0.10;;;13.10;99.90;;;;;;5023467;28;20098;-74
2023/01/02 12:29:13;;;;;;;0.20;0.20;;;13.30;99.90;;;;;;5026623;28;20514;-74
2023/01/02 12:32:18;;;;;;;0.20;0.20;;;13.30;99.90;;;;;;5028965;28;20510;-74
2023/01/02 12:35:02;;;;;;;0.17;0.17;;;13.30;99.90;;;;;;5007666;28;20065;-74
2023/01/02 12:37:57;;;;;;;0.10;0.10;;;13.20;99.90;;;;;;5023417;28;20155;-74
2023/01/02 12:40:31;;;;;;;1.95;0.85;;;13.20;99.90;;;;;;5023611;28;20026;-74
2023/01/02 12:43:33;;;;;;;0.20;0.20;;;13.40;99.90;;;;;;5025905;28;20032;-74
2023/01/02 12:46:26;;;;;;;0.30;0.30;;;13.40;99.90;;;;;;5024537;28;20025;-76
2023/01/02 12:49:24;;;;;;;0.20;0.20;;;13.40;99.90;;;;;;5021366;28;20140;-73
2023/01/02 12:51:59;;;;;;;0.20;0.20;;;13.40;99.90;;;;;;5012761;28;20038;-75
2023/01/02 12:54:34;;;;;;;0.13;0.13;;;13.30;99.90;;;;;;5016031;28;20033;-73
2023/01/02 12:57:24;;;;;;;0.20;0.20;;;13.30;99.90;;;;;;5020937;28;20028;-75
2023/01/02 13:00:02;;;;;;;0.20;0.20;;;13.20;99.90;;;;;;5019252;28;20120;-74
2023/01/02 13:03:18;;;;;;;0.20;0.20;;;13.30;99.90;;;;;;5032160;28;20020;-74
2023/01/02 13:05:50;;;;;;;0.20;0.20;;;13.30;99.90;;;;;;4935863;29;20070;-77
2023/01/02 13:08:21;;;;;;;0.20;0.20;;;13.30;99.90;;;;;;4951699;29;20035;-74
2023/01/02 13:10:48;;;;;;;0.10;0.10;;;13.30;99.90;;;;;;4990437;28;20408;-74
2023/01/02 13:13:15;;;;;;;0.10;0.10;;;13.30;99.90;;;;;;5024020;28;20021;-74